createdAt,value
2018-05-21T00:00:05.150Z,1019.41
2018-05-21T00:00:45.711Z,1019.4
2018-05-21T00:01:26.321Z,1019.42
2018-05-21T00:02:06.886Z,1019.36
2018-05-21T00:02:47.443Z,1019.36
2018-05-21T00:03:28.001Z,1019.35
2018-05-21T00:04:08.546Z,1019.37
2018-05-21T00:04:49.119Z,1019.32
2018-05-21T00:05:29.677Z,1019.36
2018-05-21T00:06:10.244Z,1019.34
2018-05-21T00:06:50.837Z,1019.34
2018-05-21T00:07:31.398Z,1019.37
2018-05-21T00:08:11.963Z,1019.33
2018-05-21T00:08:52.505Z,1019.31
2018-05-21T00:09:33.073Z,1019.33
2018-05-21T00:10:13.632Z,1019.3
2018-05-21T00:10:54.196Z,1019.32
2018-05-21T00:11:34.749Z,1019.32
2018-05-21T00:12:15.341Z,1019.33
2018-05-21T00:12:55.917Z,1019.29
2018-05-21T00:13:36.471Z,1019.33
2018-05-21T00:14:17.005Z,1019.31
2018-05-21T00:14:57.576Z,1019.29
2018-05-21T00:15:38.137Z,1019.3
2018-05-21T00:16:18.708Z,1019.3
2018-05-21T00:16:59.243Z,1019.29
2018-05-21T00:17:39.800Z,1019.25
2018-05-21T00:18:20.372Z,1019.24
2018-05-21T00:19:00.934Z,1019.22
2018-05-21T00:19:41.493Z,1019.19
2018-05-21T00:20:22.060Z,1019.22
2018-05-21T00:21:02.621Z,1019.24
2018-05-21T00:21:43.175Z,1019.2
2018-05-21T00:22:23.751Z,1019.2
2018-05-21T00:23:04.297Z,1019.19
2018-05-21T00:23:44.859Z,1019.18
2018-05-21T00:24:25.399Z,1019.18
2018-05-21T00:25:05.970Z,1019.24
2018-05-21T00:25:46.542Z,1019.14
2018-05-21T00:26:27.123Z,1019.19
2018-05-21T00:27:07.697Z,1019.2
2018-05-21T00:27:48.283Z,1019.2
2018-05-21T00:28:28.834Z,1019.14
2018-05-21T00:29:09.402Z,1019.15
2018-05-21T00:29:49.976Z,1019.15
2018-05-21T00:30:30.533Z,1019.15
2018-05-21T00:31:11.081Z,1019.14
2018-05-21T00:31:51.637Z,1019.16
2018-05-21T00:32:32.204Z,1019.12
2018-05-21T00:33:12.768Z,1019.14
2018-05-21T00:33:53.349Z,1019.11
2018-05-21T00:34:33.934Z,1019.11
2018-05-21T00:35:14.487Z,1019.11
2018-05-21T00:35:55.067Z,1019.13
2018-05-21T00:36:35.637Z,1019.12
2018-05-21T00:37:16.203Z,1019.12
2018-05-21T00:37:56.767Z,1019.13
2018-05-21T00:38:37.336Z,1019.11
2018-05-21T00:39:17.905Z,1019.17
2018-05-21T00:39:58.453Z,1019.11
2018-05-21T00:40:39.023Z,1019.14
2018-05-21T00:41:19.623Z,1019.14
2018-05-21T00:42:00.179Z,1019.19
2018-05-21T00:42:40.740Z,1019.13
2018-05-21T00:43:21.298Z,1019.14
2018-05-21T00:44:01.854Z,1019.11
2018-05-21T00:44:42.415Z,1019.15
2018-05-21T00:45:22.983Z,1019.13
2018-05-21T00:46:03.530Z,1019.12
2018-05-21T00:46:44.084Z,1019.14
2018-05-21T00:47:24.648Z,1019.14
2018-05-21T00:48:05.219Z,1019.13
2018-05-21T00:48:45.794Z,1019.08
2018-05-21T00:49:26.360Z,1019.11
2018-05-21T00:50:06.934Z,1019.12
2018-05-21T00:50:47.487Z,1019.09
2018-05-21T00:51:28.051Z,1019.12
2018-05-21T00:52:08.647Z,1019.08
2018-05-21T00:52:49.272Z,1019.11
2018-05-21T00:53:29.771Z,1019.12
2018-05-21T00:54:10.337Z,1019.09
2018-05-21T00:54:50.890Z,1019.08
2018-05-21T00:55:31.442Z,1019.09
2018-05-21T00:56:12.025Z,1019.05
2018-05-21T00:56:52.585Z,1019.1
2018-05-21T00:57:33.158Z,1019.09
2018-05-21T00:58:13.715Z,1019.07
2018-05-21T00:58:54.269Z,1019.07
2018-05-21T00:59:34.822Z,1019.06
2018-05-21T01:00:15.376Z,1019.09
2018-05-21T01:00:55.936Z,1019.07
2018-05-21T01:01:36.503Z,1019.08
2018-05-21T01:02:17.078Z,1019.11
2018-05-21T01:02:57.635Z,1019.1
2018-05-21T01:03:38.181Z,1019.08
2018-05-21T01:04:18.761Z,1019.14
2018-05-21T01:04:59.323Z,1019.12
2018-05-21T01:05:39.881Z,1019.15
2018-05-21T01:06:20.431Z,1019.12
2018-05-21T01:07:00.985Z,1019.12
2018-05-21T01:07:41.557Z,1019.09
2018-05-21T01:08:22.098Z,1019.17
2018-05-21T01:09:02.680Z,1019.14
2018-05-21T01:09:43.249Z,1019.16
2018-05-21T01:10:23.820Z,1019.16
2018-05-21T01:11:04.384Z,1019.19
2018-05-21T01:11:44.935Z,1019.18
2018-05-21T01:12:25.506Z,1019.15
2018-05-21T01:13:06.059Z,1019.13
2018-05-21T01:13:46.628Z,1019.17
2018-05-21T01:14:27.196Z,1019.15
2018-05-21T01:15:07.781Z,1019.13
2018-05-21T01:15:48.369Z,1019.11
2018-05-21T01:16:28.909Z,1019.11
2018-05-21T01:17:09.490Z,1019.12
2018-05-21T01:17:50.099Z,1019.1
2018-05-21T01:18:30.644Z,1019.1
2018-05-21T01:19:11.204Z,1019.08
2018-05-21T01:19:51.752Z,1019.07
2018-05-21T01:20:32.305Z,1019.1
2018-05-21T01:21:12.876Z,1019.06
2018-05-21T01:21:53.448Z,1019.04
2018-05-21T01:22:34.003Z,1019.05
2018-05-21T01:23:14.553Z,1019.09
2018-05-21T01:23:55.115Z,1019.05
2018-05-21T01:24:35.681Z,1019.08
2018-05-21T01:25:16.233Z,1019.09
2018-05-21T01:25:56.803Z,1019.08
2018-05-21T01:26:37.359Z,1019.09
2018-05-21T01:27:17.911Z,1019.06
2018-05-21T01:27:58.497Z,1019.03
2018-05-21T01:28:39.054Z,1019.04
2018-05-21T01:29:19.616Z,1019.07
2018-05-21T01:30:00.197Z,1019.12
2018-05-21T01:30:40.759Z,1019.09
2018-05-21T01:31:21.338Z,1019.08
2018-05-21T01:32:01.911Z,1019.07
2018-05-21T01:32:42.470Z,1019.11
2018-05-21T01:33:23.036Z,1019.08
2018-05-21T01:34:03.614Z,1019.1
2018-05-21T01:34:44.176Z,1019.12
2018-05-21T01:35:24.741Z,1019.1
2018-05-21T01:36:05.270Z,1019.08
2018-05-21T01:36:45.823Z,1019.08
2018-05-21T01:37:26.396Z,1019.07
2018-05-21T01:38:06.955Z,1019.09
2018-05-21T01:38:47.519Z,1019.1
2018-05-21T01:39:28.086Z,1019.09
2018-05-21T01:40:08.651Z,1019.09
2018-05-21T01:40:49.234Z,1019.14
2018-05-21T01:41:29.841Z,1019.13
2018-05-21T01:42:10.434Z,1019.11
2018-05-21T01:42:50.975Z,1019.13
2018-05-21T01:43:31.547Z,1019.16
2018-05-21T01:44:12.104Z,1019.16
2018-05-21T01:44:52.647Z,1019.15
2018-05-21T01:45:33.215Z,1019.2
2018-05-21T01:46:13.764Z,1019.25
2018-05-21T01:46:54.355Z,1019.22
2018-05-21T01:47:34.908Z,1019.27
2018-05-21T01:48:15.489Z,1019.29
2018-05-21T01:48:56.093Z,1019.23
2018-05-21T01:49:36.677Z,1019.27
2018-05-21T01:50:17.243Z,1019.26
2018-05-21T01:50:57.790Z,1019.26
2018-05-21T01:51:38.353Z,1019.27
2018-05-21T01:52:18.939Z,1019.28
2018-05-21T01:52:59.494Z,1019.32
2018-05-21T01:53:40.051Z,1019.28
2018-05-21T01:54:20.621Z,1019.25
2018-05-21T01:55:01.191Z,1019.23
2018-05-21T01:55:41.744Z,1019.22
2018-05-21T01:56:22.294Z,1019.22
2018-05-21T01:57:02.866Z,1019.21
2018-05-21T01:57:43.434Z,1019.24
2018-05-21T01:58:23.991Z,1019.24
2018-05-21T01:59:04.564Z,1019.21
2018-05-21T01:59:45.129Z,1019.22
2018-05-21T02:00:25.695Z,1019.23
2018-05-21T02:01:06.301Z,1019.22
2018-05-21T02:01:46.906Z,1019.24
2018-05-21T02:02:27.475Z,1019.19
2018-05-21T02:03:08.054Z,1019.16
2018-05-21T02:03:48.620Z,1019.16
2018-05-21T02:04:29.168Z,1019.16
2018-05-21T02:05:09.734Z,1019.13
2018-05-21T02:05:50.284Z,1019.13
2018-05-21T02:06:30.855Z,1019.1
2018-05-21T02:07:11.418Z,1019.16
2018-05-21T02:07:51.962Z,1019.15
2018-05-21T02:08:32.589Z,1019.14
2018-05-21T02:09:13.099Z,1019.12
2018-05-21T02:09:53.663Z,1019.12
2018-05-21T02:10:34.245Z,1019.13
2018-05-21T02:11:14.813Z,1019.1
2018-05-21T02:11:55.365Z,1019.09
2018-05-21T02:12:35.941Z,1019.09
2018-05-21T02:13:16.527Z,1019.08
2018-05-21T02:13:57.080Z,1019.11
2018-05-21T02:14:37.661Z,1019.14
2018-05-21T02:15:18.220Z,1019.02
2018-05-21T02:15:58.785Z,1019.09
2018-05-21T02:16:39.348Z,1019.06
2018-05-21T02:17:19.927Z,1019.07
2018-05-21T02:18:00.502Z,1019.09
2018-05-21T02:18:41.055Z,1019.08
2018-05-21T02:19:21.603Z,1019.06
2018-05-21T02:20:02.243Z,1019.03
2018-05-21T02:20:42.723Z,1019
2018-05-21T02:21:23.278Z,1019.04
2018-05-21T02:22:03.850Z,1019.02
2018-05-21T02:22:44.394Z,1019.02
2018-05-21T02:23:24.962Z,1019
2018-05-21T02:24:05.549Z,1019.03
2018-05-21T02:24:46.135Z,1019
2018-05-21T02:25:26.685Z,1018.99
2018-05-21T02:26:07.238Z,1018.97
2018-05-21T02:26:47.789Z,1018.94
2018-05-21T02:27:28.368Z,1018.97
2018-05-21T02:28:08.929Z,1018.94
2018-05-21T02:28:49.524Z,1018.97
2018-05-21T02:29:30.053Z,1018.95
2018-05-21T02:30:10.620Z,1018.93
2018-05-21T02:30:51.243Z,1018.91
2018-05-21T02:31:31.799Z,1018.91
2018-05-21T02:32:12.365Z,1018.9
2018-05-21T02:32:52.931Z,1018.91
2018-05-21T02:33:33.491Z,1018.91
2018-05-21T02:34:14.064Z,1018.9
2018-05-21T02:34:54.616Z,1018.92
2018-05-21T02:35:35.173Z,1018.93
2018-05-21T02:36:15.740Z,1018.91
2018-05-21T02:36:56.307Z,1018.96
2018-05-21T02:37:36.866Z,1018.94
2018-05-21T02:38:17.432Z,1018.9
2018-05-21T02:38:57.999Z,1018.92
2018-05-21T02:39:38.542Z,1018.94
2018-05-21T02:40:19.100Z,1018.96
2018-05-21T02:40:59.658Z,1018.94
2018-05-21T02:41:40.208Z,1018.96
2018-05-21T02:42:20.769Z,1018.93
2018-05-21T02:43:01.315Z,1018.93
2018-05-21T02:43:41.890Z,1018.95
2018-05-21T02:44:22.447Z,1018.97
2018-05-21T02:45:03.019Z,1018.98
2018-05-21T02:45:43.596Z,1019
2018-05-21T02:46:24.160Z,1019.07
2018-05-21T02:47:04.737Z,1019.04
2018-05-21T02:47:45.297Z,1019.06
2018-05-21T02:48:25.898Z,1019.02
2018-05-21T02:49:06.485Z,1019
2018-05-21T02:49:47.102Z,1019.01
2018-05-21T02:50:27.619Z,1018.99
2018-05-21T02:51:08.190Z,1019.02
2018-05-21T02:51:48.773Z,1018.97
2018-05-21T02:52:29.324Z,1019.02
2018-05-21T02:53:09.877Z,1019
2018-05-21T02:53:50.464Z,1019.03
2018-05-21T02:54:31.052Z,1018.98
2018-05-21T02:55:11.627Z,1019.06
2018-05-21T02:55:52.178Z,1019.1
2018-05-21T02:56:32.748Z,1019.04
2018-05-21T02:57:13.316Z,1019.04
2018-05-21T02:57:53.896Z,1018.99
2018-05-21T02:58:34.452Z,1019.02
2018-05-21T02:59:15.013Z,1019.05
2018-05-21T02:59:55.584Z,1019.04
2018-05-21T03:00:36.135Z,1019.03
2018-05-21T03:01:16.777Z,1019.01
2018-05-21T03:01:57.345Z,1018.94
2018-05-21T03:02:37.918Z,1019.02
2018-05-21T03:03:18.537Z,1018.99
2018-05-21T03:03:59.045Z,1018.97
2018-05-21T03:04:39.641Z,1018.97
2018-05-21T03:05:20.175Z,1018.96
2018-05-21T03:06:00.741Z,1018.98
2018-05-21T03:06:41.297Z,1018.98
2018-05-21T03:07:21.903Z,1018.97
2018-05-21T03:08:02.479Z,1018.92
2018-05-21T03:08:43.053Z,1018.95
2018-05-21T03:09:23.623Z,1018.97
2018-05-21T03:10:04.182Z,1018.95
2018-05-21T03:10:44.749Z,1018.95
2018-05-21T03:11:25.353Z,1018.91
2018-05-21T03:12:05.961Z,1018.93
2018-05-21T03:12:46.515Z,1018.98
2018-05-21T03:13:27.076Z,1018.99
2018-05-21T03:14:07.660Z,1018.9
2018-05-21T03:14:48.206Z,1018.95
2018-05-21T03:15:28.757Z,1018.96
2018-05-21T03:16:09.308Z,1018.94
2018-05-21T03:16:49.857Z,1018.89
2018-05-21T03:17:30.416Z,1018.88
2018-05-21T03:18:10.984Z,1018.89
2018-05-21T03:18:51.525Z,1018.9
2018-05-21T03:19:32.078Z,1018.9
2018-05-21T03:20:12.657Z,1018.87
2018-05-21T03:20:53.242Z,1018.87
2018-05-21T03:21:33.863Z,1018.87
2018-05-21T03:22:14.443Z,1018.89
2018-05-21T03:22:54.994Z,1018.88
2018-05-21T03:23:35.559Z,1018.88
2018-05-21T03:24:16.119Z,1018.88
2018-05-21T03:24:56.673Z,1018.86
2018-05-21T03:25:37.238Z,1018.87
2018-05-21T03:26:17.801Z,1018.89
2018-05-21T03:26:58.388Z,1018.89
2018-05-21T03:27:38.954Z,1018.88
2018-05-21T03:28:19.505Z,1018.89
2018-05-21T03:29:00.064Z,1018.89
2018-05-21T03:29:40.613Z,1018.89
2018-05-21T03:30:21.172Z,1018.9
2018-05-21T03:31:01.713Z,1018.9
2018-05-21T03:31:42.279Z,1018.9
2018-05-21T03:32:22.831Z,1018.89
2018-05-21T03:33:03.383Z,1018.91
2018-05-21T03:33:43.935Z,1018.88
2018-05-21T03:34:24.519Z,1018.92
2018-05-21T03:35:05.111Z,1018.95
2018-05-21T03:35:45.664Z,1018.97
2018-05-21T03:36:26.235Z,1018.94
2018-05-21T03:37:06.789Z,1018.92
2018-05-21T03:37:47.349Z,1018.93
2018-05-21T03:38:27.929Z,1018.95
2018-05-21T03:39:08.516Z,1019
2018-05-21T03:39:49.079Z,1018.98
2018-05-21T03:40:29.638Z,1018.97
2018-05-21T03:41:10.218Z,1019.01
2018-05-21T03:41:50.822Z,1018.99
2018-05-21T03:42:31.401Z,1019.03
2018-05-21T03:43:11.947Z,1019.03
2018-05-21T03:43:52.502Z,1019.04
2018-05-21T03:44:33.055Z,1019.03
2018-05-21T03:45:13.632Z,1019.02
2018-05-21T03:45:54.183Z,1019.01
2018-05-21T03:46:34.747Z,1018.99
2018-05-21T03:47:15.307Z,1019.01
2018-05-21T03:47:55.879Z,1019
2018-05-21T03:48:36.455Z,1019.02
2018-05-21T03:49:17.004Z,1018.99
2018-05-21T03:49:57.555Z,1019.01
2018-05-21T03:50:38.105Z,1018.96
2018-05-21T03:51:18.653Z,1019.02
2018-05-21T03:51:59.204Z,1019
2018-05-21T03:52:39.762Z,1019.02
2018-05-21T03:53:20.301Z,1018.98
2018-05-21T03:54:00.852Z,1019.03
2018-05-21T03:54:41.406Z,1018.99
2018-05-21T03:55:21.964Z,1019
2018-05-21T03:56:02.579Z,1018.98
2018-05-21T03:56:43.091Z,1018.99
2018-05-21T03:57:23.664Z,1018.98
2018-05-21T03:58:04.224Z,1018.95
2018-05-21T03:58:44.788Z,1018.96
2018-05-21T03:59:25.384Z,1018.98
2018-05-21T04:00:05.929Z,1019
2018-05-21T04:00:46.506Z,1019.04
2018-05-21T04:01:27.115Z,1018.99
2018-05-21T04:02:07.674Z,1019.07
2018-05-21T04:02:48.255Z,1019.03
2018-05-21T04:03:28.816Z,1018.99
2018-05-21T04:04:09.392Z,1019.03
2018-05-21T04:04:50.027Z,1018.99
2018-05-21T04:05:30.510Z,1019.04
2018-05-21T04:06:11.081Z,1018.99
2018-05-21T04:06:51.625Z,1019.03
2018-05-21T04:07:32.200Z,1019.01
2018-05-21T04:08:12.764Z,1018.99
2018-05-21T04:08:53.337Z,1019.01
2018-05-21T04:09:33.895Z,1019.07
2018-05-21T04:10:14.459Z,1019.02
2018-05-21T04:10:55.012Z,1019.05
2018-05-21T04:11:35.578Z,1019.02
2018-05-21T04:12:16.143Z,1019.01
2018-05-21T04:12:56.708Z,1019.01
2018-05-21T04:13:37.280Z,1019.03
2018-05-21T04:14:17.844Z,1019.01
2018-05-21T04:14:58.398Z,1019
2018-05-21T04:15:38.988Z,1019.02
2018-05-21T04:16:19.538Z,1018.98
2018-05-21T04:17:00.082Z,1019.01
2018-05-21T04:17:40.639Z,1019.02
2018-05-21T04:18:21.198Z,1019.04
2018-05-21T04:19:01.748Z,1019.06
2018-05-21T04:19:42.296Z,1019.03
2018-05-21T04:20:22.851Z,1019.01
2018-05-21T04:21:03.490Z,1019.03
2018-05-21T04:21:44.014Z,1018.98
2018-05-21T04:22:24.579Z,1019
2018-05-21T04:23:05.139Z,1019.04
2018-05-21T04:23:45.727Z,1019
2018-05-21T04:24:26.292Z,1019.05
2018-05-21T04:25:06.857Z,1019.04
2018-05-21T04:25:47.428Z,1019.08
2018-05-21T04:26:27.998Z,1019.04
2018-05-21T04:27:08.553Z,1019.02
2018-05-21T04:27:49.136Z,1019.02
2018-05-21T04:28:29.688Z,1019.06
2018-05-21T04:29:10.243Z,1019.01
2018-05-21T04:29:50.813Z,1019.04
2018-05-21T04:30:31.399Z,1019
2018-05-21T04:31:11.936Z,1019.02
2018-05-21T04:31:52.510Z,1019.03
2018-05-21T04:32:33.087Z,1019
2018-05-21T04:33:13.619Z,1019.02
2018-05-21T04:33:54.194Z,1019.03
2018-05-21T04:34:34.755Z,1019.07
2018-05-21T04:35:15.349Z,1019.08
2018-05-21T04:35:55.906Z,1019.07
2018-05-21T04:36:36.463Z,1019.06
2018-05-21T04:37:17.017Z,1019.1
2018-05-21T04:37:57.613Z,1019.05
2018-05-21T04:38:38.174Z,1019.08
2018-05-21T04:39:18.764Z,1019.12
2018-05-21T04:39:59.323Z,1019.11
2018-05-21T04:40:39.880Z,1019.11
2018-05-21T04:41:20.420Z,1019.11
2018-05-21T04:42:01.001Z,1019.13
2018-05-21T04:42:41.576Z,1019.06
2018-05-21T04:43:22.144Z,1019.12
2018-05-21T04:44:02.704Z,1019.11
2018-05-21T04:44:43.266Z,1019.13
2018-05-21T04:45:23.823Z,1019.14
2018-05-21T04:46:04.401Z,1019.12
2018-05-21T04:46:44.954Z,1019.08
2018-05-21T04:47:25.519Z,1019.08
2018-05-21T04:48:06.082Z,1019.1
2018-05-21T04:48:46.649Z,1019.16
2018-05-21T04:49:27.221Z,1019.11
2018-05-21T04:50:07.782Z,1019.14
2018-05-21T04:50:48.346Z,1019.09
2018-05-21T04:51:28.895Z,1019.1
2018-05-21T04:52:09.456Z,1019.11
2018-05-21T04:52:50.025Z,1019.11
2018-05-21T04:53:30.587Z,1019.11
2018-05-21T04:54:11.143Z,1019.12
2018-05-21T04:54:51.708Z,1019.09
2018-05-21T04:55:32.268Z,1019.1
2018-05-21T04:56:12.829Z,1019.08
2018-05-21T04:56:53.416Z,1019.14
2018-05-21T04:57:33.975Z,1019.1
2018-05-21T04:58:14.501Z,1019.11
2018-05-21T04:58:55.052Z,1019.08
2018-05-21T04:59:35.652Z,1019.08
2018-05-21T05:00:16.215Z,1019.08
2018-05-21T05:00:56.787Z,1019.07
2018-05-21T05:01:37.352Z,1019.07
2018-05-21T05:02:17.975Z,1019.07
2018-05-21T05:02:58.541Z,1019.1
2018-05-21T05:03:39.107Z,1019.06
2018-05-21T05:04:19.661Z,1019.07
2018-05-21T05:05:00.219Z,1019.11
2018-05-21T05:05:40.799Z,1019.11
2018-05-21T05:06:21.365Z,1019.05
2018-05-21T05:07:01.948Z,1019.09
2018-05-21T05:07:42.534Z,1019.11
2018-05-21T05:08:23.092Z,1019.09
2018-05-21T05:09:03.718Z,1019.03
2018-05-21T05:09:44.240Z,1019.07
2018-05-21T05:10:25.014Z,1019.06
2018-05-21T05:11:05.569Z,1019.07
2018-05-21T05:11:46.152Z,1019.04
2018-05-21T05:12:26.712Z,1019.06
2018-05-21T05:13:07.259Z,1019.07
2018-05-21T05:13:47.834Z,1019.07
2018-05-21T05:14:28.388Z,1019.04
2018-05-21T05:15:08.947Z,1019.08
2018-05-21T05:15:49.572Z,1019.06
2018-05-21T05:16:30.083Z,1019.01
2018-05-21T05:17:10.656Z,1018.99
2018-05-21T05:17:51.213Z,1019.03
2018-05-21T05:18:31.800Z,1019.05
2018-05-21T05:19:12.361Z,1019.04
2018-05-21T05:19:52.921Z,1018.98
2018-05-21T05:20:33.482Z,1019.03
2018-05-21T05:21:14.072Z,1019.02
2018-05-21T05:21:54.621Z,1019.03
2018-05-21T05:22:35.193Z,1019
2018-05-21T05:23:15.773Z,1018.99
2018-05-21T05:23:56.328Z,1018.94
2018-05-21T05:24:36.883Z,1019
2018-05-21T05:25:17.451Z,1019.02
2018-05-21T05:25:58.016Z,1019.01
2018-05-21T05:26:38.647Z,1019
2018-05-21T05:27:19.143Z,1018.98
2018-05-21T05:27:59.718Z,1019.05
2018-05-21T05:28:40.289Z,1019.14
2018-05-21T05:29:20.842Z,1019.27
2018-05-21T05:30:01.464Z,1019.32
2018-05-21T05:30:42.038Z,1019.31
2018-05-21T05:31:22.604Z,1019.32
2018-05-21T05:32:03.169Z,1019.37
2018-05-21T05:32:43.721Z,1019.42
2018-05-21T05:33:24.296Z,1019.43
2018-05-21T05:34:04.858Z,1019.46
2018-05-21T05:34:45.428Z,1019.46
2018-05-21T05:35:25.991Z,1019.48
2018-05-21T05:36:06.575Z,1019.49
2018-05-21T05:36:47.114Z,1019.51
2018-05-21T05:37:27.675Z,1019.53
2018-05-21T05:38:08.236Z,1019.52
2018-05-21T05:38:48.814Z,1019.58
2018-05-21T05:39:29.384Z,1019.52
2018-05-21T05:40:09.948Z,1019.57
2018-05-21T05:40:50.521Z,1019.61
2018-05-21T05:41:31.093Z,1019.62
2018-05-21T05:42:11.648Z,1019.66
2018-05-21T05:42:52.205Z,1019.67
2018-05-21T05:43:32.779Z,1019.66
2018-05-21T05:44:13.356Z,1019.67
2018-05-21T05:44:53.923Z,1019.71
2018-05-21T05:45:34.488Z,1019.72
2018-05-21T05:46:15.071Z,1019.77
2018-05-21T05:46:55.633Z,1019.79
2018-05-21T05:47:36.327Z,1019.84
2018-05-21T05:48:16.901Z,1019.85
2018-05-21T05:48:57.490Z,1019.84
2018-05-21T05:49:38.076Z,1019.83
2018-05-21T05:50:18.648Z,1019.84
2018-05-21T05:50:59.211Z,1019.89
2018-05-21T05:51:39.775Z,1019.96
2018-05-21T05:52:20.348Z,1020.07
2018-05-21T05:53:00.946Z,1020.19
2018-05-21T05:53:41.554Z,1020.2
2018-05-21T05:54:22.123Z,1020.24
2018-05-21T05:55:02.716Z,1020.35
2018-05-21T05:55:43.279Z,1020.41
2018-05-21T05:56:23.873Z,1020.51
2018-05-21T05:57:04.476Z,1020.59
2018-05-21T05:57:45.070Z,1020.61
2018-05-21T05:58:25.623Z,1020.72
2018-05-21T05:59:06.188Z,1020.73
2018-05-21T05:59:46.766Z,1020.69
2018-05-21T06:00:27.348Z,1020.68
2018-05-21T06:01:07.924Z,1020.72
2018-05-21T06:01:48.507Z,1020.64
2018-05-21T06:02:29.106Z,1020.44
2018-05-21T06:03:09.687Z,1020.42
2018-05-21T06:03:50.244Z,1020.53
2018-05-21T06:04:30.799Z,1020.71
2018-05-21T06:05:11.376Z,1020.77
2018-05-21T06:05:51.943Z,1020.72
2018-05-21T06:06:32.513Z,1020.64
2018-05-21T06:07:13.082Z,1020.57
2018-05-21T06:07:53.648Z,1020.44
2018-05-21T06:08:34.225Z,1020.32
2018-05-21T06:09:14.833Z,1020.26
2018-05-21T06:09:55.369Z,1020.25
2018-05-21T06:10:35.948Z,1020.2
2018-05-21T06:11:16.574Z,1020.16
2018-05-21T06:11:57.149Z,1020.14
2018-05-21T06:12:37.716Z,1020.08
2018-05-21T06:13:18.297Z,1019.95
2018-05-21T06:13:58.877Z,1019.84
2018-05-21T06:14:39.442Z,1019.76
2018-05-21T06:15:20.015Z,1019.66
2018-05-21T06:16:00.676Z,1019.63
2018-05-21T06:16:41.244Z,1019.53
2018-05-21T06:17:21.841Z,1019.52
2018-05-21T06:18:02.415Z,1019.64
2018-05-21T06:18:42.971Z,1019.86
2018-05-21T06:19:23.562Z,1020.05
2018-05-21T06:20:04.127Z,1020.01
2018-05-21T06:20:44.704Z,1019.99
2018-05-21T06:21:25.300Z,1019.95
2018-05-21T06:22:05.865Z,1019.93
2018-05-21T06:22:46.446Z,1019.86
2018-05-21T06:23:27.033Z,1019.81
2018-05-21T06:24:07.625Z,1019.8
2018-05-21T06:24:48.207Z,1019.78
2018-05-21T06:25:28.779Z,1019.81
2018-05-21T06:26:09.342Z,1019.92
2018-05-21T06:26:49.923Z,1019.87
2018-05-21T06:27:30.489Z,1019.9
2018-05-21T06:28:11.080Z,1020.03
2018-05-21T06:28:51.681Z,1020.11
2018-05-21T06:29:32.244Z,1020.04
2018-05-21T06:30:12.810Z,1019.98
2018-05-21T06:30:53.382Z,1019.94
2018-05-21T06:31:33.965Z,1019.98
2018-05-21T06:32:14.585Z,1020.08
2018-05-21T06:32:55.186Z,1020.09
2018-05-21T06:33:35.772Z,1019.97
2018-05-21T06:34:16.343Z,1019.92
2018-05-21T06:34:56.931Z,1019.97
2018-05-21T06:35:37.583Z,1019.9
2018-05-21T06:36:18.238Z,1019.77
2018-05-21T06:36:58.734Z,1019.64
2018-05-21T06:37:39.299Z,1019.45
2018-05-21T06:38:19.874Z,1019.29
2018-05-21T06:39:00.423Z,1019.27
2018-05-21T06:39:41.031Z,1019.19
2018-05-21T06:40:21.636Z,1019.18
2018-05-21T06:41:02.288Z,1019.19
2018-05-21T06:41:42.781Z,1019.16
2018-05-21T06:42:23.363Z,1019.16
2018-05-21T06:43:03.961Z,1019.1
2018-05-21T06:43:44.539Z,1019.15
2018-05-21T06:44:25.132Z,1019.15
2018-05-21T06:45:05.915Z,1019.12
2018-05-21T06:45:46.530Z,1019.1
2018-05-21T06:46:27.080Z,1019.11
2018-05-21T06:47:07.687Z,1019.11
2018-05-21T06:47:48.319Z,1019.12
2018-05-21T06:48:28.844Z,1019.1
2018-05-21T06:49:09.426Z,1019.15
2018-05-21T06:49:50.002Z,1019.14
2018-05-21T06:50:30.603Z,1019.16
2018-05-21T06:51:11.213Z,1019.16
2018-05-21T06:51:51.816Z,1019.1
2018-05-21T06:52:32.357Z,1019.1
2018-05-21T06:53:12.926Z,1019.08
2018-05-21T06:53:53.539Z,1019.09
2018-05-21T06:54:34.136Z,1019.11
2018-05-21T06:55:14.727Z,1019.12
2018-05-21T06:55:55.288Z,1019.1
2018-05-21T06:56:35.857Z,1019.08
2018-05-21T06:57:16.499Z,1019.09
2018-05-21T06:57:57.089Z,1019.08
2018-05-21T06:58:37.702Z,1019.05
2018-05-21T06:59:18.257Z,1019.07
2018-05-21T06:59:58.868Z,1019.05
2018-05-21T07:00:39.432Z,1019.05
2018-05-21T07:01:20.057Z,1019.09
2018-05-21T07:02:00.732Z,1019.07
2018-05-21T07:02:41.309Z,1019.08
2018-05-21T07:03:21.903Z,1019.07
2018-05-21T07:04:02.566Z,1019.09
2018-05-21T07:04:43.225Z,1019.08
2018-05-21T07:05:23.973Z,1019.11
2018-05-21T07:06:04.546Z,1019.07
2018-05-21T07:06:45.144Z,1019.09
2018-05-21T07:07:25.711Z,1019.07
2018-05-21T07:08:06.536Z,1019.08
2018-05-21T07:08:46.983Z,1019.07
2018-05-21T07:09:29.030Z,1019.06
2018-05-21T07:10:10.657Z,1019.01
2018-05-21T07:10:51.728Z,1019.02
2018-05-21T07:11:32.304Z,1018.99
2018-05-21T07:12:12.885Z,1019.02
2018-05-21T07:12:53.454Z,1018.98
2018-05-21T07:13:34.093Z,1018.99
2018-05-21T07:14:14.879Z,1018.97
2018-05-21T07:14:55.459Z,1018.96
2018-05-21T07:15:36.033Z,1018.94
2018-05-21T07:16:16.862Z,1018.93
2018-05-21T07:16:57.395Z,1018.92
2018-05-21T07:17:37.991Z,1018.93
2018-05-21T07:18:18.679Z,1018.93
2018-05-21T07:18:59.149Z,1018.91
2018-05-21T07:19:39.732Z,1018.92
2018-05-21T07:20:20.300Z,1018.88
2018-05-21T07:21:00.877Z,1018.91
2018-05-21T07:21:41.464Z,1018.88
2018-05-21T07:22:22.037Z,1018.95
2018-05-21T07:23:02.620Z,1018.94
2018-05-21T07:23:43.184Z,1018.9
2018-05-21T07:24:24.107Z,1018.91
2018-05-21T07:25:04.689Z,1018.93
2018-05-21T07:25:45.265Z,1018.9
2018-05-21T07:26:25.934Z,1018.92
2018-05-21T07:27:06.520Z,1018.9
2018-05-21T07:27:47.096Z,1018.85
2018-05-21T07:28:27.680Z,1018.86
2018-05-21T07:29:08.242Z,1018.82
2018-05-21T07:29:48.852Z,1018.81
2018-05-21T07:30:29.430Z,1018.81
2018-05-21T07:31:10.014Z,1018.8
2018-05-21T07:31:50.620Z,1018.84
2018-05-21T07:32:31.181Z,1018.83
2018-05-21T07:33:11.777Z,1018.8
2018-05-21T07:33:52.349Z,1018.79
2018-05-21T07:34:32.922Z,1018.79
2018-05-21T07:35:13.492Z,1018.78
2018-05-21T07:35:54.058Z,1018.79
2018-05-21T07:36:34.640Z,1018.78
2018-05-21T07:37:15.218Z,1018.77
2018-05-21T07:37:55.811Z,1018.78
2018-05-21T07:38:36.364Z,1018.78
2018-05-21T07:39:16.963Z,1018.74
2018-05-21T07:39:57.545Z,1018.77
2018-05-21T07:40:38.131Z,1018.76
2018-05-21T07:41:18.755Z,1018.77
2018-05-21T07:41:59.834Z,1018.74
2018-05-21T07:42:40.703Z,1018.78
2018-05-21T07:43:21.415Z,1018.8
2018-05-21T07:44:02.059Z,1018.76
2018-05-21T07:44:42.952Z,1018.73
2018-05-21T07:45:23.555Z,1018.72
2018-05-21T07:46:04.140Z,1018.7
2018-05-21T07:46:44.713Z,1018.75
2018-05-21T07:47:25.330Z,1018.73
2018-05-21T07:48:05.938Z,1018.69
2018-05-21T07:48:46.511Z,1018.75
2018-05-21T07:49:27.076Z,1018.75
2018-05-21T07:50:07.696Z,1018.74
2018-05-21T07:50:48.454Z,1018.75
2018-05-21T07:51:29.005Z,1018.74
2018-05-21T07:52:09.700Z,1018.72
2018-05-21T07:52:50.265Z,1018.73
2018-05-21T07:53:30.862Z,1018.75
2018-05-21T07:54:11.429Z,1018.7
2018-05-21T07:54:52.015Z,1018.65
2018-05-21T07:55:32.948Z,1018.59
2018-05-21T07:56:13.827Z,1018.6
2018-05-21T07:56:54.471Z,1018.58
2018-05-21T07:57:35.556Z,1018.59
2018-05-21T07:58:16.275Z,1018.54
2018-05-21T07:58:57.126Z,1018.53
2018-05-21T07:59:37.996Z,1018.54
2018-05-21T08:00:18.572Z,1018.52
2018-05-21T08:00:59.187Z,1018.51
2018-05-21T08:01:39.726Z,1018.54
2018-05-21T08:02:20.332Z,1018.54
2018-05-21T08:03:00.935Z,1018.5
2018-05-21T08:03:41.518Z,1018.54
2018-05-21T08:04:22.126Z,1018.51
2018-05-21T08:05:02.709Z,1018.51
2018-05-21T08:05:43.349Z,1018.46
2018-05-21T08:06:23.927Z,1018.45
2018-05-21T08:07:04.508Z,1018.48
2018-05-21T08:07:45.072Z,1018.43
2018-05-21T08:08:25.661Z,1018.43
2018-05-21T08:09:06.236Z,1018.41
2018-05-21T08:09:46.873Z,1018.38
2018-05-21T08:10:27.434Z,1018.38
2018-05-21T08:11:08.010Z,1018.42
2018-05-21T08:11:48.626Z,1018.4
2018-05-21T08:12:29.200Z,1018.38
2018-05-21T08:13:09.756Z,1018.37